Time;durP1;ratioP1;P1;durP2;ratioP2;P2;SDS_P1;SDS_P2;PMS_P1;PMS_P2;Temp;Humidity;BMP_temperature;BMP_pressure;BME280_temperature;BME280_humidity;BME280_pressure;Samples;Min_cycle;Max_cycle;Signal;HPM_P1;HPM_P2
2023/08/01 00:01:41;;;;;;;;;3.75;2.00;;;;;20.77;75.99;99932.84;5036931;28;45234;-70
2023/08/01 00:04:07;;;;;;;;;4.00;2.25;;;;;20.72;76.00;99913.81;5037078;28;45300;-70
2023/08/01 00:06:32;;;;;;;;;4.00;4.00;;;;;20.55;75.94;99877.72;5036498;28;47207;-71
2023/08/01 00:08:57;;;;;;;;;5.75;4.00;;;;;20.82;75.92;99914.09;5036437;28;45300;-71
2023/08/01 00:11:22;;;;;;;;;2.25;2.25;;;;;20.82;75.63;99910.53;5036190;28;55772;-70
2023/08/01 00:13:48;;;;;;;;;4.75;3.25;;;;;20.82;75.78;99922.19;5035983;28;45381;-70
2023/08/01 00:16:13;;;;;;;;;1.00;1.00;;;;;20.49;75.90;99886.75;5036353;28;45676;-71
2023/08/01 00:18:39;;;;;;;;;2.25;2.00;;;;;20.70;75.91;99925.91;5036530;28;45531;-71
2023/08/01 00:21:05;;;;;;;;;4.25;3.75;;;;;20.73;75.76;99922.75;5036633;28;45408;-71
2023/08/01 00:23:31;;;;;;;;;2.75;2.75;;;;;20.56;75.71;99900.97;5039151;28;45325;-71
2023/08/01 00:25:56;;;;;;;;;3.00;2.75;;;;;20.63;75.43;99913.34;5039945;28;45617;-71
2023/08/01 00:28:22;;;;;;;;;4.00;3.00;;;;;20.61;75.52;99907.31;5039508;28;45293;-71
2023/08/01 00:30:48;;;;;;;;;5.00;4.00;;;;;20.63;75.46;99901.72;5039951;28;45260;-72
2023/08/01 00:33:14;;;;;;;;;4.00;3.25;;;;;20.67;75.30;99913.69;5039872;28;45226;-71
2023/08/01 00:35:39;;;;;;;;;5.00;3.00;;;;;20.65;75.85;99907.69;5022247;28;45851;-71
2023/08/01 00:38:05;;;;;;;;;3.00;3.00;;;;;20.50;75.75;99874.88;5039569;28;45214;-72
2023/08/01 00:40:34;;;;;;;;;4.00;3.00;;;;;20.67;75.69;99902.88;5039297;28;57015;-71
2023/08/01 00:42:59;;;;;;;;;3.67;3.67;;;;;20.70;75.71;99909.69;5039795;28;45509;-71
2023/08/01 00:45:29;;;;;;;;;4.00;4.00;;;;;20.67;75.65;99902.06;5039613;28;45838;-71
2023/08/01 00:47:55;;;;;;;;;2.75;2.75;;;;;20.64;75.49;99887.16;5039624;28;45381;-72
2023/08/01 00:50:21;;;;;;;;;3.67;2.67;;;;;20.68;75.44;99892.91;5039724;28;45497;-71
2023/08/01 00:52:48;;;;;;;;;4.50;3.00;;;;;20.71;75.69;99903.25;5039764;28;45542;-71
2023/08/01 00:55:15;;;;;;;;;5.00;3.75;;;;;20.63;75.54;99885.50;5039419;28;45360;-71
2023/08/01 00:57:41;;;;;;;;;3.75;3.75;;;;;20.70;75.55;99897.00;5039130;28;45535;-71
2023/08/01 01:00:06;;;;;;;;;3.67;1.00;;;;;20.70;75.54;99894.31;5039571;28;45490;-69
2023/08/01 01:02:32;;;;;;;;;3.33;3.33;;;;;20.59;75.43;99873.47;5039793;28;45241;-71
2023/08/01 01:04:57;;;;;;;;;2.33;2.33;;;;;20.64;75.36;99870.94;5039161;28;49863;-70
2023/08/01 01:07:23;;;;;;;;;3.50;3.50;;;;;20.68;75.81;99877.53;5039258;28;45266;-71
2023/08/01 01:09:50;;;;;;;;;2.75;2.75;;;;;20.66;75.62;99879.63;5039303;28;45250;-71
2023/08/01 01:12:15;;;;;;;;;1.25;1.25;;;;;20.66;75.50;99871.53;5039134;28;45532;-71
2023/08/01 01:14:41;;;;;;;;;2.00;2.00;;;;;20.55;75.48;99848.81;5038807;28;45526;-71
2023/08/01 01:17:06;;;;;;;;;1.25;1.25;;;;;20.54;75.53;99852.59;5039051;28;45427;-71
2023/08/01 01:19:31;;;;;;;;;1.50;1.50;;;;;20.66;75.32;99863.44;5039167;28;45317;-71
2023/08/01 01:21:58;;;;;;;;;2.00;2.00;;;;;20.67;75.81;99866.94;5039214;28;45512;-70
2023/08/01 01:24:25;;;;;;;;;2.00;1.00;;;;;20.66;75.47;99868.81;5038930;28;46231;-70
2023/08/01 01:26:52;;;;;;;;;4.00;2.00;;;;;20.49;75.40;99821.94;5037663;28;45689;-70
2023/08/01 01:29:18;;;;;;;;;3.00;2.00;;;;;20.62;75.32;99856.81;5038728;28;45270;-70
2023/08/01 01:31:43;;;;;;;;;1.25;0.50;;;;;20.69;75.26;99873.75;5039111;28;45235;-70
2023/08/01 01:34:09;;;;;;;;;1.25;1.25;;;;;20.68;75.48;99885.63;5038512;28;45677;-70
2023/08/01 01:36:34;;;;;;;;;4.00;2.00;;;;;20.75;75.82;99913.34;5038847;28;45474;-70
2023/08/01 01:39:00;;;;;;;;;1.00;1.00;;;;;20.70;75.85;99907.00;5038721;28;45391;-70
2023/08/01 01:41:25;;;;;;;;;0.75;0.75;;;;;20.73;75.90;99918.16;5039292;28;45321;-70
2023/08/01 01:43:51;;;;;;;;;1.00;0.00;;;;;20.63;75.57;99896.31;5036997;28;48666;-70
2023/08/01 01:46:16;;;;;;;;;1.75;0.00;;;;;20.70;75.52;99910.53;5038605;28;45416;-70
2023/08/01 01:48:42;;;;;;;;;0.00;0.00;;;;;20.68;75.55;99920.75;5038965;28;45492;-70
2023/08/01 01:51:07;;;;;;;;;0.00;0.00;;;;;20.74;75.43;99918.97;5038929;28;45545;-70
2023/08/01 01:53:33;;;;;;;;;0.00;0.00;;;;;20.67;75.68;99902.88;5038600;28;45401;-70
2023/08/01 01:55:58;;;;;;;;;0.00;0.00;;;;;20.79;75.93;99933.44;5038485;28;45419;-72
2023/08/01 01:58:23;;;;;;;;;0.00;0.00;;;;;20.77;75.96;99918.53;5038410;28;45430;-70
2023/08/01 02:00:49;;;;;;;;;0.00;0.00;;;;;20.76;75.93;99924.97;5038480;28;48304;-71
2023/08/01 02:03:14;;;;;;;;;0.00;0.00;;;;;20.36;75.70;99864.22;5038235;28;45616;-71
2023/08/01 02:05:40;;;;;;;;;0.00;0.00;;;;;20.73;75.81;99923.56;5037942;28;60112;-71
2023/08/01 02:08:06;;;;;;;;;0.00;0.00;;;;;20.76;75.63;99920.41;5038560;28;45270;-71
2023/08/01 02:10:31;;;;;;;;;0.00;0.00;;;;;20.77;75.47;99929.31;5038703;28;45358;-70
2023/08/01 02:12:57;;;;;;;;;0.00;0.00;;;;;20.67;76.25;99919.09;5036501;28;48755;-71
2023/08/01 02:15:22;;;;;;;;;0.00;0.00;;;;;20.74;75.80;99924.38;5038289;28;45483;-70
2023/08/01 02:17:47;;;;;;;;;0.00;0.00;;;;;20.45;75.77;99880.97;5038093;28;53008;-69
2023/08/01 02:20:13;;;;;;;;;0.00;0.00;;;;;20.76;75.43;99933.09;5038303;28;45527;-70
2023/08/01 02:22:38;;;;;;;;;0.00;0.00;;;;;20.31;75.60;99866.78;5038214;28;45539;-70
2023/08/01 02:25:03;;;;;;;;;0.00;0.00;;;;;20.66;75.37;99925.53;5037795;28;56452;-70
2023/08/01 02:27:29;;;;;;;;;0.00;0.00;;;;;20.73;75.74;99942.47;5038002;28;45218;-70
2023/08/01 02:29:54;;;;;;;;;0.00;0.00;;;;;20.46;75.75;99903.41;5038343;28;45265;-70
2023/08/01 02:32:19;;;;;;;;;0.00;0.00;;;;;20.74;75.30;99951.41;5037231;28;69716;-69
2023/08/01 02:34:45;;;;;;;;;0.00;0.00;;;;;20.38;74.71;99895.56;5038092;28;45498;-71
2023/08/01 02:37:10;;;;;;;;;0.00;0.00;;;;;20.65;74.75;99956.31;5038278;28;45269;-70
2023/08/01 02:39:35;;;;;;;;;1.25;0.00;;;;;20.56;74.35;99949.56;5038444;28;45408;-70
2023/08/01 02:42:01;;;;;;;;;0.25;0.25;;;;;20.62;74.18;99954.91;5037902;28;46448;-70
2023/08/01 02:44:26;;;;;;;;;1.00;1.00;;;;;20.56;74.25;99963.06;5037372;28;45285;-70
2023/08/01 02:46:52;;;;;;;;;1.00;1.00;;;;;20.59;74.05;99976.09;5037518;28;45430;-70
2023/08/01 02:49:17;;;;;;;;;0.75;0.75;;;;;20.56;74.09;99971.16;5038034;28;45505;-71
2023/08/01 02:51:43;;;;;;;;;3.00;1.00;;;;;20.57;73.84;99979.03;5037491;28;46013;-70
2023/08/01 02:54:08;;;;;;;;;1.25;1.00;;;;;20.35;74.09;99946.28;5037385;28;54924;-70
2023/08/01 02:56:33;;;;;;;;;1.25;1.00;;;;;20.56;73.78;99987.38;5037971;28;45715;-70
2023/08/01 02:58:58;;;;;;;;;1.00;0.00;;;;;20.54;73.74;99978.69;5036245;28;45265;-70
2023/08/01 03:01:24;;;;;;;;;1.00;1.00;;;;;20.10;74.00;99915.03;5037202;28;57272;-70
2023/08/01 03:03:49;;;;;;;;;1.00;1.00;;;;;20.48;73.83;99980.41;5037633;28;45325;-70
2023/08/01 03:06:15;;;;;;;;;2.00;0.75;;;;;20.51;73.66;99992.63;5019765;28;45329;-71
2023/08/01 03:08:40;;;;;;;;;1.00;1.00;;;;;20.53;73.17;100004.03;5037954;28;45412;-70
2023/08/01 03:11:05;;;;;;;;;1.25;1.25;;;;;20.41;73.33;99995.03;5037410;28;46530;-71
2023/08/01 03:13:31;;;;;;;;;1.00;1.00;;;;;20.34;73.79;99979.72;5037229;28;45350;-70
2023/08/01 03:15:56;;;;;;;;;2.00;2.00;;;;;20.36;73.70;100004.63;5037477;28;45273;-70
2023/08/01 03:18:22;;;;;;;;;0.25;0.00;;;;;20.33;72.81;99998.84;5037778;28;45520;-71
2023/08/01 03:20:47;;;;;;;;;0.00;0.00;;;;;20.23;72.82;99994.00;5037325;28;46560;-70
2023/08/01 03:23:12;;;;;;;;;0.50;0.50;;;;;20.25;72.27;100007.25;5037418;28;45233;-70
2023/08/01 03:25:38;;;;;;;;;0.00;0.00;;;;;20.32;71.78;100030.41;5037506;28;45309;-70
2023/08/01 03:28:04;;;;;;;;;0.00;0.00;;;;;20.31;71.53;100038.75;5037220;28;45174;-71
2023/08/01 03:30:31;;;;;;;;;0.25;0.25;;;;;20.26;71.46;100028.63;5037299;28;45727;-71
2023/08/01 03:32:57;;;;;;;;;0.00;0.00;;;;;20.28;71.38;100029.22;5037046;28;45459;-71
2023/08/01 03:35:23;;;;;;;;;0.25;0.25;;;;;20.12;70.90;100021.72;5036435;28;59551;-71
2023/08/01 03:37:49;;;;;;;;;0.00;0.00;;;;;20.16;70.63;100022.91;5037403;28;45514;-71
2023/08/01 03:40:14;;;;;;;;;1.00;1.00;;;;;20.23;70.46;100037.19;5036717;28;45333;-71
2023/08/01 03:42:40;;;;;;;;;1.25;0.00;;;;;20.22;70.59;100045.47;5035629;28;45549;-70
2023/08/01 03:45:06;;;;;;;;;0.00;0.00;;;;;20.11;70.47;100032.72;5037102;28;45413;-70
2023/08/01 03:47:32;;;;;;;;;0.75;0.75;;;;;20.06;69.92;100030.72;5037346;28;45176;-70
2023/08/01 03:49:57;;;;;;;;;1.00;1.00;;;;;20.14;69.88;100054.69;5036681;28;47398;-70
2023/08/01 03:52:23;;;;;;;;;0.50;0.50;;;;;19.35;68.88;99942.13;5036740;28;45325;-70
2023/08/01 03:54:48;;;;;;;;;1.00;1.00;;;;;20.07;69.11;100064.75;5037025;28;45310;-70
2023/08/01 03:57:14;;;;;;;;;0.75;0.75;;;;;20.07;69.28;100064.75;5037874;28;45516;-70
2023/08/01 03:59:39;;;;;;;;;1.25;0.75;;;;;19.97;68.70;100056.31;5038874;28;47595;-70
2023/08/01 04:02:05;;;;;;;;;0.00;0.00;;;;;20.02;68.59;100067.25;5039070;28;45560;-70
2023/08/01 04:04:31;;;;;;;;;0.00;0.00;;;;;20.00;68.19;100066.66;5040479;28;45462;-70
2023/08/01 04:06:56;;;;;;;;;0.25;0.25;;;;;19.98;68.29;100061.47;5040461;28;45594;-71
2023/08/01 04:09:22;;;;;;;;;2.00;2.00;;;;;19.83;68.28;100046.72;5039876;28;46190;-70
2023/08/01 04:11:47;;;;;;;;;0.75;0.75;;;;;19.94;68.55;100064.84;5040247;28;45313;-70
2023/08/01 04:14:12;;;;;;;;;1.00;1.00;;;;;19.68;68.42;100033.56;5039810;28;45725;-70
2023/08/01 04:16:38;;;;;;;;;1.00;1.00;;;;;19.76;68.11;100049.44;5038486;28;54550;-70
2023/08/01 04:19:03;;;;;;;;;1.25;1.25;;;;;19.79;67.85;100064.34;5039579;28;45569;-70
2023/08/01 04:21:28;;;;;;;;;2.00;2.00;;;;;19.63;68.27;100045.00;5040056;28;45476;-73
2023/08/01 04:23:54;;;;;;;;;2.00;2.00;;;;;19.43;68.05;100011.97;5040142;28;45572;-71
2023/08/01 04:26:19;;;;;;;;;2.00;1.50;;;;;19.59;68.21;100046.47;5038795;28;45463;-71
2023/08/01 04:28:47;;;;;;;;;2.50;1.00;;;;;19.72;68.26;100067.94;5039326;28;46508;-70
2023/08/01 04:31:12;;;;;;;;;1.00;0.00;;;;;19.63;68.67;100045.00;5039881;28;45339;-70
2023/08/01 04:33:37;;;;;;;;;2.00;2.00;;;;;19.26;68.93;99997.38;5039775;28;45440;-71
2023/08/01 04:36:03;;;;;;;;;1.00;1.00;;;;;19.45;68.46;100024.16;5039163;28;58156;-70
2023/08/01 04:38:28;;;;;;;;;1.75;1.75;;;;;19.67;68.32;100058.88;5039700;28;46907;-70
2023/08/01 04:40:53;;;;;;;;;2.25;2.25;;;;;19.58;68.41;100044.81;5038469;28;45493;-70
2023/08/01 04:43:19;;;;;;;;;1.00;1.00;;;;;19.63;67.81;100068.44;5039008;28;53497;-70
2023/08/01 04:45:45;;;;;;;;;2.50;1.25;;;;;19.37;68.37;100021.72;5038745;28;45261;-71
2023/08/01 04:48:10;;;;;;;;;2.50;1.00;;;;;19.59;67.73;100056.44;5039406;28;46922;-70
2023/08/01 04:50:36;;;;;;;;;1.00;1.00;;;;;19.55;67.56;100056.03;5039460;28;45257;-71
2023/08/01 04:53:01;;;;;;;;;5.33;5.33;;;;;19.37;67.93;100026.28;5038180;28;45558;-71
2023/08/01 04:55:26;;;;;;;;;3.75;3.00;;;;;19.57;67.74;100070.13;5038999;28;53909;-69
2023/08/01 04:57:51;;;;;;;;;1.00;1.00;;;;;19.44;67.98;100051.34;5037864;28;47242;-69
2023/08/01 05:00:17;;;;;;;;;1.00;1.00;;;;;19.51;67.77;100062.91;5039434;28;45325;-71
2023/08/01 05:02:42;;;;;;;;;2.00;2.00;;;;;19.35;67.75;100041.84;5039469;28;45610;-71
2023/08/01 05:05:08;;;;;;;;;3.00;3.00;;;;;19.41;68.18;100049.88;5039869;28;45521;-71
2023/08/01 05:07:33;;;;;;;;;3.00;1.00;;;;;19.40;67.48;100052.81;5039035;28;46543;-71
2023/08/01 05:09:58;;;;;;;;;1.00;1.00;;;;;19.53;67.27;100076.97;5038559;28;52455;-71
2023/08/01 05:12:23;;;;;;;;;2.25;1.00;;;;;19.53;67.06;100079.69;5039157;28;45395;-70
2023/08/01 05:14:49;;;;;;;;;2.00;2.00;;;;;19.56;67.31;100079.28;5038436;28;60390;-70
2023/08/01 05:17:14;;;;;;;;;2.00;2.00;;;;;19.42;67.37;100056.97;5038884;28;45739;-72
2023/08/01 05:19:39;;;;;;;;;2.00;2.00;;;;;19.47;67.35;100071.66;5039052;28;45334;-70
2023/08/01 05:22:05;;;;;;;;;3.25;2.00;;;;;19.56;67.48;100094.63;5039154;28;45316;-70
2023/08/01 05:24:30;;;;;;;;;3.00;3.00;;;;;19.56;67.11;100084.66;5039219;28;45460;-71
2023/08/01 05:26:56;;;;;;;;;3.00;2.75;;;;;19.54;67.00;100091.31;5038745;28;45572;-70
2023/08/01 05:29:21;;;;;;;;;2.00;2.00;;;;;19.50;66.90;100082.81;5038563;28;45361;-71
2023/08/01 05:31:46;;;;;;;;;3.00;2.00;;;;;19.52;66.55;100099.59;5039005;28;45721;-70
2023/08/01 05:34:12;;;;;;;;;1.50;1.50;;;;;19.42;66.72;100083.06;5039000;28;45503;-70
2023/08/01 05:36:37;;;;;;;;;3.00;2.00;;;;;19.50;66.71;100099.00;5020688;28;46490;-70
2023/08/01 05:39:03;;;;;;;;;2.25;2.25;;;;;19.62;66.81;100105.38;5020780;28;45397;-69
2023/08/01 05:41:28;;;;;;;;;2.50;1.50;;;;;19.61;66.09;100114.47;5038763;28;45388;-70
2023/08/01 05:43:54;;;;;;;;;1.25;1.00;;;;;19.55;65.84;100115.38;5037021;28;45515;-71
2023/08/01 05:46:19;;;;;;;;;3.00;2.00;;;;;19.49;65.69;100097.34;5038247;28;45545;-71
2023/08/01 05:48:45;;;;;;;;;3.25;2.00;;;;;19.71;65.65;100119.41;5038427;28;45580;-71
2023/08/01 05:51:10;;;;;;;;;2.50;1.50;;;;;19.66;65.52;100105.75;5038667;28;45298;-70
2023/08/01 05:53:35;;;;;;;;;2.00;2.00;;;;;19.61;65.05;100119.06;5038702;28;45486;-70
2023/08/01 05:56:01;;;;;;;;;1.25;1.25;;;;;19.61;65.21;100114.47;5038576;28;45844;-70
2023/08/01 05:58:26;;;;;;;;;2.75;2.00;;;;;19.68;64.43;100126.06;5037942;28;47964;-70
2023/08/01 06:00:51;;;;;;;;;1.75;1.75;;;;;19.72;64.99;100112.97;5038178;28;48205;-71
2023/08/01 06:03:17;;;;;;;;;2.00;2.00;;;;;19.69;64.94;100111.53;5038522;28;45403;-71
2023/08/01 06:05:43;;;;;;;;;1.00;1.00;;;;;19.68;64.65;100109.06;5038406;28;46900;-71
2023/08/01 06:08:08;;;;;;;;;2.00;2.00;;;;;19.80;64.57;100125.34;5038194;28;45381;-71
2023/08/01 06:10:35;;;;;;;;;4.00;2.50;;;;;19.87;64.50;100121.56;5037074;28;45390;-69
2023/08/01 06:13:00;;;;;;;;;2.75;2.75;;;;;19.96;63.93;100135.59;5037757;28;45449;-71
2023/08/01 06:15:25;;;;;;;;;2.00;2.00;;;;;20.01;63.94;100138.47;5037165;28;67749;-70
2023/08/01 06:17:51;;;;;;;;;2.25;2.25;;;;;19.95;63.86;100131.25;5037933;28;45451;-70
2023/08/01 06:20:16;;;;;;;;;2.75;2.50;;;;;19.97;63.32;100134.56;5037011;28;45316;-70
2023/08/01 06:22:42;;;;;;;;;6.33;4.00;;;;;20.05;63.58;100137.00;5037153;28;57483;-70
2023/08/01 06:25:08;;;;;;;;;3.00;1.75;;;;;20.17;63.89;100123.59;5037616;28;46568;-72
2023/08/01 06:27:34;;;;;;;;;5.00;4.00;;;;;20.56;62.92;100130.50;5037322;28;45322;-70
2023/08/01 06:29:59;;;;;;;;;3.25;1.00;;;;;20.93;61.95;100134.84;5037699;28;45215;-70
2023/08/01 06:32:25;;;;;;;;;3.00;3.00;;;;;21.19;61.14;100135.56;5037868;28;45489;-71
2023/08/01 06:34:50;;;;;;;;;2.00;1.00;;;;;21.25;59.81;100102.25;5037460;28;45743;-70
2023/08/01 06:37:15;;;;;;;;;3.25;2.00;;;;;21.64;59.86;100135.19;5019644;28;45500;-71
2023/08/01 06:39:41;;;;;;;;;2.25;2.25;;;;;21.93;58.77;100145.13;5036315;28;46460;-70
2023/08/01 06:42:06;;;;;;;;;3.75;3.75;;;;;22.13;58.10;100144.84;5037581;28;45539;-71
2023/08/01 06:44:31;;;;;;;;;3.67;2.00;;;;;22.26;57.06;100143.78;5037313;28;46573;-70
2023/08/01 06:46:57;;;;;;;;;2.25;1.75;;;;;22.53;56.94;100149.56;5037389;28;45286;-69
2023/08/01 06:49:22;;;;;;;;;2.50;2.50;;;;;22.70;55.96;100147.78;5037558;28;45372;-69
2023/08/01 06:51:47;;;;;;;;;2.00;2.00;;;;;22.69;55.67;100133.41;5037576;28;45316;-70
2023/08/01 06:54:13;;;;;;;;;2.00;2.00;;;;;23.01;54.68;100165.53;5037494;28;45501;-70
2023/08/01 06:56:38;;;;;;;;;5.25;3.00;;;;;23.12;54.82;100159.25;5036956;28;55506;-70
2023/08/01 06:59:03;;;;;;;;;2.00;2.00;;;;;23.15;54.31;100152.53;5036664;28;51236;-70
2023/08/01 07:01:29;;;;;;;;;3.00;3.00;;;;;23.01;53.07;100122.16;5037525;28;45531;-69
2023/08/01 07:03:55;;;;;;;;;4.25;3.00;;;;;23.25;53.01;100172.56;5019127;28;48298;-70
2023/08/01 07:06:20;;;;;;;;;5.50;3.25;;;;;23.18;53.12;100169.13;5037219;28;45386;-70
2023/08/01 07:08:47;;;;;;;;;3.00;3.00;;;;;23.17;53.09;100166.66;5036824;28;45576;-70
2023/08/01 07:11:12;;;;;;;;;3.00;3.00;;;;;23.13;53.14;100171.75;5037376;28;45214;-71
2023/08/01 07:13:37;;;;;;;;;6.00;5.00;;;;;23.11;52.68;100168.47;5036486;28;45873;-70
2023/08/01 07:16:03;;;;;;;;;2.33;2.00;;;;;23.07;52.90;100167.28;5035498;28;45636;-70
2023/08/01 07:18:28;;;;;;;;;5.25;2.00;;;;;22.99;53.07;100162.22;5037268;28;45227;-69
2023/08/01 07:21:04;;;;;;;;;5.00;2.00;;;;;22.80;53.59;100149.84;5037160;28;45405;-71
2023/08/01 07:23:31;;;;;;;;;5.33;5.33;;;;;22.81;53.25;100148.78;5036950;28;46735;-69
2023/08/01 07:25:56;;;;;;;;;3.00;3.00;;;;;22.96;53.20;100166.25;5037041;28;45578;-71
2023/08/01 07:28:21;;;;;;;;;1.00;1.00;;;;;23.04;53.13;100165.06;5036766;28;45382;-71
2023/08/01 07:30:47;;;;;;;;;2.00;2.00;;;;;23.12;52.86;100163.84;5036787;28;45294;-71
2023/08/01 07:33:12;;;;;;;;;2.50;2.00;;;;;23.20;52.38;100171.59;5036421;28;47709;-70
2023/08/01 07:35:37;;;;;;;;;3.00;3.00;;;;;23.09;52.89;100150.78;5035811;28;61535;-72
2023/08/01 07:38:03;;;;;;;;;3.00;3.00;;;;;23.36;51.83;100182.50;5036491;28;50117;-70
2023/08/01 07:40:28;;;;;;;;;3.00;2.00;;;;;23.27;52.02;100175.84;5036742;28;45389;-70
2023/08/01 07:42:53;;;;;;;;;2.00;2.00;;;;;23.38;51.48;100190.41;5036556;28;46413;-71
2023/08/01 07:45:20;;;;;;;;;3.25;2.00;;;;;23.22;51.72;100169.47;5036726;28;45354;-71
2023/08/01 07:47:45;;;;;;;;;3.00;3.00;;;;;23.30;51.71;100183.50;5036439;28;45400;-71
2023/08/01 07:50:11;;;;;;;;;4.75;2.25;;;;;23.18;52.31;100179.97;5034704;28;53623;-71
2023/08/01 07:52:36;;;;;;;;;2.00;2.00;;;;;23.13;52.10;100185.31;5036496;28;46347;-70
2023/08/01 07:55:01;;;;;;;;;5.00;4.00;;;;;23.09;52.00;100186.84;5036381;28;45356;-71
2023/08/01 07:57:27;;;;;;;;;5.25;2.75;;;;;23.01;51.64;100188.03;5036283;28;45173;-71
2023/08/01 07:59:52;;;;;;;;;1.75;1.75;;;;;22.84;52.10;100183.63;5036611;28;45481;-71
2023/08/01 08:02:18;;;;;;;;;2.00;2.00;;;;;22.85;51.96;100204.22;5036246;28;45673;-69
2023/08/01 08:04:43;;;;;;;;;4.00;3.00;;;;;22.81;52.62;100198.41;5036475;28;45234;-69
2023/08/01 08:07:08;;;;;;;;;4.67;3.00;;;;;22.68;52.53;100196.78;5018106;28;46849;-70
2023/08/01 08:09:34;;;;;;;;;6.50;4.25;;;;;22.54;52.73;100189.94;5035616;28;59776;-70
2023/08/01 08:11:59;;;;;;;;;2.25;2.25;;;;;22.56;52.89;100201.38;5036211;28;46458;-71
2023/08/01 08:14:24;;;;;;;;;5.33;3.33;;;;;22.48;52.97;100182.78;5035662;28;45373;-70
2023/08/01 08:16:50;;;;;;;;;4.25;3.25;;;;;22.65;52.85;100210.00;5036260;28;45503;-70
2023/08/01 08:19:16;;;;;;;;;4.00;3.00;;;;;22.66;52.64;100209.75;5036338;28;45579;-70
2023/08/01 08:21:41;;;;;;;;;2.33;2.33;;;;;22.67;52.68;100216.81;5034596;28;46557;-71
2023/08/01 08:24:06;;;;;;;;;4.00;2.00;;;;;22.66;53.54;100217.88;5035950;28;45574;-70
2023/08/01 08:26:34;;;;;;;;;2.50;2.50;;;;;22.69;52.59;100220.13;5036371;28;45348;-70
2023/08/01 08:28:59;;;;;;;;;4.00;3.00;;;;;22.62;52.78;100202.31;5035876;28;45506;-71
2023/08/01 08:31:24;;;;;;;;;4.50;3.00;;;;;22.70;52.65;100216.34;5034452;28;47887;-71
2023/08/01 08:33:50;;;;;;;;;2.00;2.00;;;;;22.62;52.78;100200.41;5035951;28;45244;-71
2023/08/01 08:36:15;;;;;;;;;3.00;3.00;;;;;22.77;52.09;100208.06;5035677;28;45930;-71
2023/08/01 08:38:40;;;;;;;;;4.00;4.00;;;;;22.95;52.03;100212.56;5034801;28;45381;-70
2023/08/01 08:41:27;;;;;;;;;2.00;2.00;;;;;23.08;51.05;100216.94;5035520;28;46435;-70
2023/08/01 08:43:56;;;;;;;;;1.50;1.50;;;;;23.21;50.16;100216.63;5037232;28;45347;-71
2023/08/01 08:46:23;;;;;;;;;11.00;9.67;;;;;23.26;50.29;100219.47;5039294;28;45390;-71
2023/08/01 08:48:49;;;;;;;;;2.00;2.00;;;;;23.27;50.71;100221.94;5039294;28;45550;-70
2023/08/01 08:51:15;;;;;;;;;5.00;5.00;;;;;23.12;51.05;100196.41;5039034;28;46470;-70
2023/08/01 08:53:44;;;;;;;;;3.00;3.00;;;;;23.26;51.23;100211.34;5039225;28;45317;-69
2023/08/01 08:56:11;;;;;;;;;2.75;2.75;;;;;23.37;51.36;100233.00;5039133;28;45234;-70
2023/08/01 08:58:40;;;;;;;;;4.75;3.50;;;;;23.49;51.40;100229.44;5038849;28;45431;-70
2023/08/01 09:01:07;;;;;;;;;3.50;3.00;;;;;23.58;50.29;100222.56;5038859;28;46738;-71
2023/08/01 09:03:33;;;;;;;;;3.25;1.50;;;;;23.60;49.32;100234.00;5039017;28;45395;-71
2023/08/01 09:06:10;;;;;;;;;4.75;4.75;;;;;23.54;49.81;100232.25;5039149;28;45618;-71
2023/08/01 09:08:39;;;;;;;;;1.50;1.50;;;;;23.54;49.49;100230.34;5039058;28;45539;-71
2023/08/01 09:11:04;;;;;;;;;6.00;4.00;;;;;23.57;49.78;100226.34;5037597;28;47618;-70
2023/08/01 09:13:30;;;;;;;;;2.00;2.00;;;;;23.54;49.39;100207.81;5038653;28;45293;-71
2023/08/01 09:15:56;;;;;;;;;2.25;2.00;;;;;23.28;48.86;100157.69;5039132;28;45380;-70
2023/08/01 09:18:21;;;;;;;;;3.00;3.00;;;;;23.71;48.62;100216.03;5039069;28;45436;-70
2023/08/01 09:20:48;;;;;;;;;1.25;1.25;;;;;23.66;48.25;100214.88;5038702;28;48876;-70
2023/08/01 09:23:14;;;;;;;;;9.33;7.33;;;;;23.73;48.87;100233.72;5038233;28;45552;-70
2023/08/01 09:25:40;;;;;;;;;3.00;3.00;;;;;23.70;48.58;100215.22;5038670;28;45419;-70
2023/08/01 09:28:23;;;;;;;;;2.50;2.50;;;;;23.78;48.85;100217.53;5038745;28;45666;-70
2023/08/01 09:30:55;;;;;;;;;5.00;2.75;;;;;23.73;48.42;100230.19;5038445;28;46579;-70
2023/08/01 09:33:21;;;;;;;;;2.50;2.50;;;;;23.80;48.86;100223.53;5038409;28;45355;-70
2023/08/01 09:35:49;;;;;;;;;2.75;2.00;;;;;23.84;48.03;100232.03;5038663;28;45333;-70
2023/08/01 09:38:15;;;;;;;;;4.25;3.00;;;;;23.91;48.02;100233.53;5038809;28;45530;-70
2023/08/01 09:40:42;;;;;;;;;3.50;2.00;;;;;23.90;48.52;100226.44;5038292;28;45855;-70
2023/08/01 09:43:09;;;;;;;;;3.00;3.00;;;;;23.98;48.07;100236.91;5020010;28;45424;-71
2023/08/01 09:45:34;;;;;;;;;3.67;1.67;;;;;23.94;47.82;100216.75;5036882;28;45430;-69
2023/08/01 09:48:00;;;;;;;;;1.50;1.50;;;;;23.93;47.15;100215.09;5037108;28;45581;-69
2023/08/01 09:50:26;;;;;;;;;2.50;1.50;;;;;23.91;47.45;100221.84;5038003;28;45602;-70
2023/08/01 09:52:54;;;;;;;;;3.00;3.00;;;;;23.91;47.60;100228.09;5038290;28;45369;-71
2023/08/01 09:55:31;;;;;;;;;1.25;1.00;;;;;23.98;47.91;100236.06;5037044;28;45343;-72
2023/08/01 09:57:58;;;;;;;;;2.25;2.25;;;;;24.01;47.42;100221.19;5038026;28;45534;-70
2023/08/01 10:00:26;;;;;;;;;1.00;1.00;;;;;24.04;47.36;100234.28;5038089;28;46921;-70
2023/08/01 10:02:53;;;;;;;;;1.50;1.50;;;;;24.03;47.29;100213.63;5037887;28;45478;-71
2023/08/01 10:05:19;;;;;;;;;2.75;2.75;;;;;24.07;47.07;100228.38;5038186;28;45420;-71
2023/08/01 10:07:46;;;;;;;;;2.50;2.50;;;;;24.09;47.36;100237.91;5038329;28;45443;-71
2023/08/01 10:10:12;;;;;;;;;2.50;1.25;;;;;23.97;46.74;100220.84;5037655;28;45769;-71
2023/08/01 10:12:38;;;;;;;;;2.25;2.25;;;;;23.95;47.07;100223.81;5037397;28;45484;-71
2023/08/01 10:15:04;;;;;;;;;5.25;4.00;;;;;23.96;46.96;100220.03;5037996;28;45384;-71
2023/08/01 10:17:31;;;;;;;;;2.75;1.75;;;;;23.85;46.63;100211.97;5038296;28;45321;-70
2023/08/01 10:19:57;;;;;;;;;2.00;2.00;;;;;23.51;46.86;100175.75;5037748;28;46416;-71
2023/08/01 10:22:24;;;;;;;;;4.00;1.33;;;;;23.79;46.45;100251.75;5037942;28;45356;-70
2023/08/01 10:24:51;;;;;;;;;2.75;2.75;;;;;23.69;45.93;100243.44;5037809;28;45464;-71
2023/08/01 10:27:21;;;;;;;;;2.00;2.00;;;;;23.73;46.33;100247.28;5037622;28;45559;-72
2023/08/01 10:29:59;;;;;;;;;2.67;2.67;;;;;23.65;46.46;100243.09;5037145;28;46424;-71
2023/08/01 10:32:38;;;;;;;;;3.67;3.00;;;;;23.69;45.86;100221.72;5037229;28;45479;-70
2023/08/01 10:35:05;;;;;;;;;2.00;2.00;;;;;23.78;46.41;100225.66;5037627;28;45518;-70
2023/08/01 10:37:44;;;;;;;;;2.00;2.00;;;;;23.57;46.76;100172.09;5037678;28;45538;-71
2023/08/01 10:40:10;;;;;;;;;3.00;3.00;;;;;23.82;46.83;100191.53;5036109;28;48720;-71
2023/08/01 10:42:45;;;;;;;;;3.00;0.00;;;;;23.93;46.12;100208.84;5019614;28;46402;-70
2023/08/01 10:45:21;;;;;;;;;2.00;2.00;;;;;23.92;45.95;100235.16;5037633;28;45536;-71
2023/08/01 10:47:48;;;;;;;;;3.50;2.25;;;;;23.92;45.52;100231.63;5037898;28;45478;-71
2023/08/01 10:50:15;;;;;;;;;4.00;2.00;;;;;23.88;46.44;100241.34;5037255;28;46527;-71
2023/08/01 10:52:41;;;;;;;;;4.00;1.25;;;;;23.87;45.79;100236.97;5035978;28;45300;-70
2023/08/01 10:55:07;;;;;;;;;3.50;3.50;;;;;23.76;45.96;100241.38;5037283;28;45555;-70
2023/08/01 10:57:35;;;;;;;;;2.00;2.00;;;;;23.74;46.06;100240.81;5037395;28;45326;-71
2023/08/01 11:00:01;;;;;;;;;3.25;3.25;;;;;23.84;45.25;100249.16;5036999;28;47535;-70
2023/08/01 11:02:28;;;;;;;;;1.75;1.75;;;;;23.56;45.46;100197.53;5037205;28;45679;-70
2023/08/01 11:05:05;;;;;;;;;5.25;3.75;;;;;23.88;45.93;100244.88;5037571;28;45329;-70
2023/08/01 11:07:31;;;;;;;;;4.50;3.25;;;;;23.96;45.31;100247.19;5036804;28;45321;-70
2023/08/01 11:10:13;;;;;;;;;2.00;1.75;;;;;24.01;46.04;100254.59;5019000;28;47205;-70
2023/08/01 11:12:40;;;;;;;;;2.75;1.25;;;;;24.08;45.54;100268.88;5036732;28;45433;-71
2023/08/01 11:15:08;;;;;;;;;3.00;1.75;;;;;23.90;44.63;100236.47;5035798;28;45361;-71
2023/08/01 11:17:34;;;;;;;;;1.00;1.00;;;;;24.04;44.39;100237.00;5036849;28;45304;-70
2023/08/01 11:20:08;;;;;;;;;2.00;2.00;;;;;24.06;44.29;100249.28;5018498;28;48556;-70
2023/08/01 11:22:36;;;;;;;;;3.75;2.75;;;;;23.71;44.35;100192.44;5036721;28;45268;-70